createdAt,value
2017-06-28T00:01:50.834Z,6.93
2017-06-28T00:04:18.447Z,7.37
2017-06-28T00:06:46.702Z,6.93
2017-06-28T00:09:14.632Z,8.00
2017-06-28T00:11:42.952Z,8.27
2017-06-28T00:14:11.601Z,6.90
2017-06-28T00:16:39.803Z,6.60
2017-06-28T00:19:07.327Z,7.57
2017-06-28T00:21:35.461Z,7.37
2017-06-28T00:24:03.315Z,13.30
2017-06-28T00:26:31.095Z,6.70
2017-06-28T00:28:58.657Z,7.20
2017-06-28T00:31:26.369Z,7.10
2017-06-28T00:33:55.319Z,7.37
2017-06-28T00:36:22.819Z,9.10
2017-06-28T00:38:50.526Z,7.00
2017-06-28T00:41:18.051Z,7.17
2017-06-28T00:43:45.954Z,9.00
2017-06-28T00:46:14.157Z,7.80
2017-06-28T00:48:41.912Z,8.17
2017-06-28T00:51:09.526Z,7.73
2017-06-28T00:53:37.233Z,7.90
2017-06-28T00:56:04.767Z,7.27
2017-06-28T00:58:32.301Z,9.70
2017-06-28T01:01:00.832Z,7.87
2017-06-28T01:03:28.437Z,6.90
2017-06-28T01:05:56.032Z,8.40
2017-06-28T01:08:23.672Z,7.43
2017-06-28T01:10:51.286Z,7.80
2017-06-28T01:13:19.320Z,7.73
2017-06-28T01:15:46.779Z,8.20
2017-06-28T01:18:14.713Z,8.30
2017-06-28T01:20:42.752Z,8.97
2017-06-28T01:23:10.331Z,7.63
2017-06-28T01:25:37.905Z,8.70
2017-06-28T01:28:05.391Z,7.90
2017-06-28T01:30:33.289Z,11.00
2017-06-28T01:33:00.852Z,7.67
2017-06-28T01:35:28.382Z,8.43
2017-06-28T01:37:57.293Z,7.80
2017-06-28T01:40:24.822Z,8.67
2017-06-28T01:42:52.306Z,12.50
2017-06-28T01:45:20.244Z,9.17
2017-06-28T01:47:47.785Z,8.00
2017-06-28T01:50:15.295Z,8.20
2017-06-28T01:52:43.187Z,7.80
2017-06-28T01:55:10.794Z,7.73
2017-06-28T01:57:38.480Z,8.07
2017-06-28T02:00:05.962Z,8.90
2017-06-28T02:02:33.854Z,7.80
2017-06-28T02:05:01.538Z,9.10
2017-06-28T02:07:28.980Z,7.40
2017-06-28T02:09:56.467Z,8.80
2017-06-28T02:12:24.027Z,8.60
2017-06-28T02:14:51.492Z,8.70
2017-06-28T02:17:19.090Z,8.00
2017-06-28T02:19:46.543Z,7.70
2017-06-28T02:22:14.008Z,7.70
2017-06-28T02:24:41.557Z,9.10
2017-06-28T02:27:09.071Z,8.03
2017-06-28T02:29:37.835Z,8.33
2017-06-28T02:32:05.347Z,9.47
2017-06-28T02:34:33.203Z,8.13
2017-06-28T02:37:01.437Z,8.57
2017-06-28T02:39:28.974Z,8.30
2017-06-28T02:41:56.518Z,8.77
2017-06-28T02:44:24.428Z,9.23
2017-06-28T02:46:51.942Z,9.30
2017-06-28T02:49:19.860Z,9.50
2017-06-28T02:51:47.337Z,9.37
2017-06-28T02:54:14.856Z,8.20
2017-06-28T02:56:42.405Z,8.20
2017-06-28T02:59:10.988Z,7.77
2017-06-28T03:01:38.595Z,10.97
2017-06-28T03:04:06.171Z,9.20
2017-06-28T03:06:33.719Z,8.70
2017-06-28T03:09:01.230Z,8.67
2017-06-28T03:11:29.438Z,8.20
2017-06-28T03:13:57.307Z,7.67
2017-06-28T03:16:25.169Z,7.87
2017-06-28T03:18:53.092Z,8.53
2017-06-28T03:21:20.613Z,8.73
2017-06-28T03:23:48.524Z,9.77
2017-06-28T03:26:16.088Z,12.63
2017-06-28T03:28:43.609Z,10.20
2017-06-28T03:31:11.151Z,11.63
2017-06-28T03:33:38.878Z,10.57
2017-06-28T03:36:06.402Z,10.67
2017-06-28T03:38:34.321Z,10.60
2017-06-28T03:41:02.074Z,11.17
2017-06-28T03:43:29.577Z,11.87
2017-06-28T03:45:57.076Z,12.03
2017-06-28T03:48:24.653Z,12.97
2017-06-28T03:50:52.138Z,12.13
2017-06-28T03:53:19.708Z,12.60
2017-06-28T03:55:47.289Z,13.30
2017-06-28T03:58:14.767Z,13.73
2017-06-28T04:00:42.293Z,14.00
2017-06-28T04:03:09.844Z,12.27
2017-06-28T04:05:37.352Z,12.53
2017-06-28T04:08:04.900Z,11.77
2017-06-28T04:10:34.133Z,11.97
2017-06-28T04:13:01.682Z,15.77
2017-06-28T04:15:29.289Z,13.80
2017-06-28T04:17:57.214Z,13.10
2017-06-28T04:20:25.526Z,13.73
2017-06-28T04:22:53.403Z,14.30
2017-06-28T04:25:21.417Z,15.53
2017-06-28T04:27:48.939Z,13.40
2017-06-28T04:30:16.875Z,13.40
2017-06-28T04:32:44.387Z,14.27
2017-06-28T04:35:12.382Z,14.10
2017-06-28T04:37:39.909Z,13.77
2017-06-28T04:40:07.816Z,16.77
2017-06-28T04:42:35.787Z,15.33
2017-06-28T04:45:03.365Z,14.57
2017-06-28T04:47:30.900Z,13.47
2017-06-28T04:49:58.795Z,14.27
2017-06-28T04:52:26.437Z,13.90
2017-06-28T04:54:54.321Z,15.37
2017-06-28T04:57:22.834Z,14.13
2017-06-28T04:59:50.394Z,15.40
2017-06-28T05:02:17.930Z,13.70
2017-06-28T05:04:45.435Z,19.03
2017-06-28T05:07:12.944Z,14.83
2017-06-28T05:09:40.830Z,15.20
2017-06-28T05:12:08.352Z,16.80
2017-06-28T05:14:35.883Z,15.73
2017-06-28T05:17:03.406Z,14.13
2017-06-28T05:19:31.338Z,15.90
2017-06-28T05:21:58.877Z,15.10
2017-06-28T05:24:26.379Z,16.47
2017-06-28T05:26:53.963Z,16.00
2017-06-28T05:29:21.897Z,14.13
2017-06-28T05:31:49.610Z,15.37
2017-06-28T05:34:17.137Z,15.03
2017-06-28T05:36:44.652Z,14.43
2017-06-28T05:39:12.194Z,15.23
2017-06-28T05:41:40.133Z,13.13
2017-06-28T05:44:07.629Z,14.70
2017-06-28T05:46:35.551Z,12.83
2017-06-28T05:49:03.648Z,12.07
2017-06-28T05:51:31.141Z,11.63
2017-06-28T05:53:59.035Z,10.40
2017-06-28T05:56:26.611Z,9.43
2017-06-28T05:58:54.133Z,7.73
2017-06-28T06:01:21.618Z,7.70
2017-06-28T06:03:49.187Z,6.57
2017-06-28T06:06:16.708Z,6.23
2017-06-28T06:08:44.153Z,6.50
2017-06-28T06:11:11.731Z,5.83
2017-06-28T06:13:39.286Z,4.80
2017-06-28T06:16:06.865Z,5.53
2017-06-28T06:18:34.380Z,6.00
2017-06-28T06:21:02.197Z,5.37
2017-06-28T06:23:30.606Z,5.90
2017-06-28T06:25:58.537Z,6.13
2017-06-28T06:28:26.092Z,7.13
2017-06-28T06:30:53.592Z,7.13
2017-06-28T06:33:21.088Z,6.03
2017-06-28T06:35:48.614Z,7.00
2017-06-28T06:38:16.120Z,4.43
2017-06-28T06:40:43.879Z,6.63
2017-06-28T06:43:11.484Z,6.23
2017-06-28T06:45:38.989Z,6.77
2017-06-28T06:48:06.855Z,7.33
2017-06-28T06:50:34.457Z,4.80
2017-06-28T06:53:01.968Z,6.17
2017-06-28T06:55:29.474Z,8.57
2017-06-28T06:57:57.026Z,6.10
2017-06-28T07:00:25.100Z,4.30
2017-06-28T07:02:52.989Z,4.97
2017-06-28T07:05:20.621Z,4.50
2017-06-28T07:07:48.700Z,4.00
2017-06-28T07:10:16.617Z,4.00
2017-06-28T07:12:44.074Z,4.13
2017-06-28T07:15:11.521Z,4.33
2017-06-28T07:17:39.053Z,4.13
2017-06-28T07:20:06.562Z,4.37
2017-06-28T07:22:34.063Z,4.90
2017-06-28T07:25:01.605Z,4.23
2017-06-28T07:27:29.109Z,4.23
2017-06-28T07:29:56.606Z,4.77
2017-06-28T07:32:24.547Z,4.57
2017-06-28T07:34:52.413Z,5.13
2017-06-28T07:37:19.898Z,4.03
2017-06-28T07:39:47.354Z,5.20
2017-06-28T07:42:14.808Z,4.53
2017-06-28T07:44:42.599Z,5.10
2017-06-28T07:47:10.066Z,5.10
2017-06-28T07:49:37.571Z,5.40
2017-06-28T07:52:05.111Z,7.53
2017-06-28T07:54:32.594Z,6.20
2017-06-28T07:57:00.128Z,5.63
2017-06-28T07:59:27.884Z,4.70
2017-06-28T08:01:55.370Z,3.90
2017-06-28T08:04:22.879Z,5.10
2017-06-28T08:06:50.654Z,4.93
2017-06-28T08:09:18.173Z,7.73
2017-06-28T08:11:45.721Z,4.50
2017-06-28T08:14:13.273Z,4.20
2017-06-28T08:16:40.802Z,6.73
2017-06-28T08:19:08.323Z,4.07
2017-06-28T08:21:35.969Z,7.60
2017-06-28T08:24:03.493Z,4.27
2017-06-28T08:26:31.857Z,4.10
2017-06-28T08:28:59.391Z,4.77
2017-06-28T08:31:26.920Z,5.27
2017-06-28T08:33:54.840Z,5.37
2017-06-28T08:36:23.120Z,4.60
2017-06-28T08:38:50.690Z,4.73
2017-06-28T08:41:18.277Z,6.10
2017-06-28T08:43:45.770Z,4.70
2017-06-28T08:46:13.662Z,4.47
2017-06-28T08:48:41.310Z,5.47
2017-06-28T08:51:09.294Z,5.97
2017-06-28T08:53:36.787Z,4.80
2017-06-28T08:56:04.332Z,5.60
2017-06-28T08:58:33.007Z,5.10
2017-06-28T09:01:00.507Z,4.40
2017-06-28T09:03:28.030Z,7.50
2017-06-28T09:05:55.584Z,4.33
2017-06-28T09:08:23.764Z,5.57
2017-06-28T09:10:51.639Z,4.50
2017-06-28T09:13:19.168Z,4.90
2017-06-28T09:15:46.674Z,4.70
2017-06-28T09:18:14.485Z,6.17
2017-06-28T09:20:42.132Z,5.70
2017-06-28T09:23:09.708Z,4.80
2017-06-28T09:25:37.216Z,4.27
2017-06-28T09:28:05.114Z,4.33
2017-06-28T09:30:32.661Z,4.83
2017-06-28T09:33:00.562Z,4.00
2017-06-28T09:35:28.111Z,5.43
2017-06-28T09:37:55.616Z,4.00
2017-06-28T09:40:23.253Z,4.53
2017-06-28T09:42:50.801Z,6.10
2017-06-28T09:47:52.246Z,8.57
2017-06-28T09:50:20.044Z,5.13
2017-06-28T09:52:47.523Z,6.63
2017-06-28T09:55:15.185Z,5.33
2017-06-28T09:57:42.791Z,3.90
2017-06-28T10:00:10.286Z,3.53
2017-06-28T10:02:38.126Z,3.93
2017-06-28T10:05:05.724Z,4.50
2017-06-28T10:07:33.642Z,3.60
2017-06-28T10:10:01.149Z,4.07
2017-06-28T10:12:29.247Z,5.93
2017-06-28T10:14:57.156Z,3.90
2017-06-28T10:17:24.656Z,4.63
2017-06-28T10:19:52.203Z,4.37
2017-06-28T10:22:19.701Z,4.10
2017-06-28T10:24:47.579Z,4.40
2017-06-28T10:27:15.113Z,4.40
2017-06-28T10:29:42.657Z,4.77
2017-06-28T10:32:10.954Z,4.80
2017-06-28T10:34:38.493Z,4.40
2017-06-28T10:37:05.981Z,3.93
2017-06-28T10:39:33.898Z,4.20
2017-06-28T10:42:01.404Z,4.00
2017-06-28T10:44:28.923Z,4.70
2017-06-28T10:46:56.493Z,4.67
2017-06-28T10:49:24.036Z,4.93
2017-06-28T10:51:51.523Z,8.10
2017-06-28T10:54:19.062Z,5.23
2017-06-28T10:56:47.000Z,6.40
2017-06-28T10:59:14.487Z,4.83
2017-06-28T11:01:42.394Z,4.57
2017-06-28T11:04:09.937Z,4.63
2017-06-28T11:06:37.841Z,5.77
2017-06-28T11:09:05.349Z,3.97
2017-06-28T11:11:32.865Z,4.40
2017-06-28T11:14:01.930Z,4.00
2017-06-28T11:16:29.907Z,4.10
2017-06-28T11:18:57.371Z,5.30
2017-06-28T11:21:24.907Z,5.57
2017-06-28T11:23:52.416Z,3.77
2017-06-28T11:26:19.954Z,3.80
2017-06-28T11:28:47.480Z,3.60
2017-06-28T11:31:15.190Z,4.27
2017-06-28T11:33:43.127Z,3.10
2017-06-28T11:36:10.619Z,3.83
2017-06-28T11:38:38.796Z,3.00
2017-06-28T11:41:06.664Z,3.50
2017-06-28T11:43:34.325Z,3.47
2017-06-28T11:46:02.255Z,3.03
2017-06-28T11:48:29.799Z,3.73
2017-06-28T11:50:57.283Z,5.37
2017-06-28T11:53:25.009Z,3.40
2017-06-28T11:55:52.528Z,3.03
2017-06-28T11:58:20.126Z,2.73
2017-06-28T12:00:47.687Z,3.33
2017-06-28T12:03:16.749Z,3.73
2017-06-28T12:05:45.105Z,4.87
2017-06-28T12:08:12.631Z,2.97
2017-06-28T12:10:40.166Z,3.70
2017-06-28T12:13:08.042Z,3.87
2017-06-28T12:15:35.533Z,2.13
2017-06-28T12:18:03.054Z,3.57
2017-06-28T12:20:30.806Z,4.00
2017-06-28T12:22:58.306Z,2.60
2017-06-28T12:25:25.792Z,3.20
2017-06-28T12:27:53.921Z,3.07
2017-06-28T12:30:21.433Z,2.23
2017-06-28T12:32:49.393Z,3.60
2017-06-28T12:35:16.940Z,2.77
2017-06-28T12:37:44.501Z,6.80
2017-06-28T12:40:12.037Z,2.83
2017-06-28T12:42:39.585Z,4.53
2017-06-28T12:45:07.394Z,4.07
2017-06-28T12:47:35.097Z,3.50
2017-06-28T12:50:03.077Z,4.17
2017-06-28T12:52:30.966Z,2.50
2017-06-28T12:54:58.489Z,1.43
2017-06-28T12:57:25.984Z,1.70
2017-06-28T12:59:53.532Z,2.80
2017-06-28T13:02:21.537Z,1.83
2017-06-28T13:04:49.002Z,2.30
2017-06-28T13:07:16.540Z,1.60
2017-06-28T13:09:44.463Z,2.30
2017-06-28T13:12:11.943Z,2.47
2017-06-28T13:14:39.447Z,2.33
2017-06-28T13:17:07.323Z,2.37
2017-06-28T13:19:34.916Z,2.33
2017-06-28T13:22:02.453Z,5.80
2017-06-28T13:24:30.629Z,2.23
2017-06-28T13:26:58.526Z,3.00
2017-06-28T13:29:26.042Z,2.53
2017-06-28T13:31:53.976Z,3.03
2017-06-28T13:34:21.481Z,2.50
2017-06-28T13:36:49.005Z,1.93
2017-06-28T13:39:16.498Z,2.57
2017-06-28T13:41:44.375Z,5.83
2017-06-28T13:44:11.935Z,3.90
2017-06-28T13:46:39.427Z,2.20
2017-06-28T13:49:06.935Z,3.90
2017-06-28T13:51:34.467Z,1.87
2017-06-28T13:54:01.998Z,4.97
2017-06-28T13:56:30.000Z,2.70
2017-06-28T13:58:57.490Z,2.43
2017-06-28T14:01:26.009Z,1.80
2017-06-28T14:03:53.572Z,1.40
2017-06-28T14:06:21.017Z,1.47
2017-06-28T14:08:48.606Z,1.20
2017-06-28T14:11:16.993Z,3.97
2017-06-28T14:13:44.975Z,2.07
2017-06-28T14:16:12.488Z,1.17
2017-06-28T14:18:40.076Z,2.40
2017-06-28T14:21:07.638Z,2.63
2017-06-28T14:23:35.129Z,1.80
2017-06-28T14:26:03.014Z,1.30
2017-06-28T14:28:30.587Z,2.30
2017-06-28T14:30:58.068Z,1.90
2017-06-28T14:33:26.435Z,1.37
2017-06-28T14:35:54.095Z,1.70
2017-06-28T14:38:21.604Z,2.10
2017-06-28T14:40:49.103Z,2.80
2017-06-28T14:43:16.660Z,2.03
2017-06-28T14:45:44.674Z,1.40
2017-06-28T14:48:12.201Z,2.50
2017-06-28T14:50:39.725Z,2.03
2017-06-28T14:53:07.884Z,3.97
2017-06-28T14:55:36.655Z,1.67
2017-06-28T14:58:05.190Z,1.30
2017-06-28T15:00:33.619Z,2.70
2017-06-28T15:03:02.506Z,1.43
2017-06-28T15:05:30.973Z,1.80
2017-06-28T15:07:59.618Z,1.70
2017-06-28T15:10:28.204Z,1.80
2017-06-28T15:12:56.469Z,3.10
2017-06-28T15:15:24.670Z,4.90
2017-06-28T15:17:53.472Z,2.20
2017-06-28T15:20:21.714Z,2.00
2017-06-28T15:22:50.057Z,1.50
2017-06-28T15:25:20.528Z,4.43
2017-06-28T15:27:48.919Z,2.07
2017-06-28T15:30:17.484Z,1.83
2017-06-28T15:32:45.402Z,2.97
2017-06-28T15:35:13.689Z,3.80
2017-06-28T15:37:42.270Z,3.57
2017-06-28T15:40:11.720Z,2.03
2017-06-28T15:42:40.826Z,3.17
2017-06-28T15:45:09.537Z,1.63
2017-06-28T15:47:38.231Z,2.10
2017-06-28T15:50:07.027Z,2.20
2017-06-28T15:52:35.472Z,2.23
2017-06-28T15:55:03.997Z,3.03
2017-06-28T15:57:32.555Z,4.47
2017-06-28T16:00:01.272Z,2.47
2017-06-28T16:02:30.335Z,2.30
2017-06-28T16:04:58.758Z,2.10
2017-06-28T16:07:27.097Z,2.17
2017-06-28T16:09:55.630Z,2.50
2017-06-28T16:12:24.342Z,2.03
2017-06-28T16:14:52.694Z,2.03
2017-06-28T16:17:21.040Z,1.90
2017-06-28T16:19:50.581Z,2.07
2017-06-28T16:22:18.771Z,3.90
2017-06-28T16:24:47.098Z,2.33
2017-06-28T16:27:16.849Z,1.70
2017-06-28T16:29:46.115Z,1.53
2017-06-28T16:32:14.442Z,4.27
2017-06-28T16:34:42.633Z,4.97
2017-06-28T16:37:11.258Z,2.07
2017-06-28T16:39:40.080Z,4.47
2017-06-28T16:42:08.399Z,3.37
2017-06-28T16:44:38.016Z,2.70
2017-06-28T16:47:06.757Z,4.73
2017-06-28T16:49:35.192Z,1.63
2017-06-28T16:52:03.906Z,1.90
2017-06-28T16:54:32.761Z,2.03
2017-06-28T16:57:01.143Z,1.73
2017-06-28T16:59:30.398Z,2.13
2017-06-28T17:01:58.289Z,3.00
2017-06-28T17:04:26.629Z,2.07
2017-06-28T17:06:54.857Z,2.87
2017-06-28T17:09:23.494Z,2.13
2017-06-28T17:11:51.952Z,2.77
2017-06-28T17:14:19.967Z,2.60
2017-06-28T17:16:47.881Z,2.40
2017-06-28T17:19:16.593Z,1.70
2017-06-28T17:21:45.150Z,2.17
2017-06-28T17:24:13.913Z,2.37
2017-06-28T17:26:42.058Z,3.37
2017-06-28T17:29:10.453Z,2.70
2017-06-28T17:31:39.234Z,2.40
2017-06-28T17:34:08.080Z,1.80
2017-06-28T17:36:36.544Z,2.43
2017-06-28T17:39:06.961Z,2.30
2017-06-28T17:41:35.218Z,2.20
2017-06-28T17:44:04.470Z,2.30
2017-06-28T17:46:33.944Z,2.30
2017-06-28T17:49:02.224Z,4.43
2017-06-28T17:51:31.252Z,3.03
2017-06-28T17:53:59.496Z,1.90
2017-06-28T17:56:28.078Z,2.90
2017-06-28T17:58:57.111Z,2.87
2017-06-28T18:01:25.460Z,5.80
2017-06-28T18:03:53.647Z,5.10
2017-06-28T18:06:21.832Z,2.37
2017-06-28T18:08:50.668Z,3.63
2017-06-28T18:11:20.186Z,2.47
2017-06-28T18:13:49.370Z,3.27
2017-06-28T18:16:18.247Z,2.70
2017-06-28T18:18:46.799Z,2.13
2017-06-28T18:21:16.002Z,2.77
2017-06-28T18:23:44.024Z,2.43
2017-06-28T18:26:12.799Z,2.23
2017-06-28T18:28:40.554Z,2.60
2017-06-28T18:31:09.147Z,2.37
2017-06-28T18:33:37.798Z,2.40
2017-06-28T18:36:06.472Z,3.90
2017-06-28T18:38:35.150Z,3.00
2017-06-28T18:41:03.771Z,3.47
2017-06-28T18:43:32.567Z,2.77
2017-06-28T18:46:00.620Z,2.40
2017-06-28T18:48:29.435Z,2.90
2017-06-28T18:50:57.555Z,2.03
2017-06-28T18:53:26.432Z,2.53
2017-06-28T18:55:54.784Z,2.30
2017-06-28T18:58:23.637Z,3.00
2017-06-28T19:00:52.796Z,2.87
2017-06-28T19:03:22.758Z,4.33
2017-06-28T19:05:52.001Z,2.50
2017-06-28T19:08:20.805Z,3.57
2017-06-28T19:10:49.744Z,3.07
2017-06-28T19:13:18.764Z,2.40
2017-06-28T19:15:47.624Z,2.63
2017-06-28T19:18:16.491Z,2.67
2017-06-28T19:20:45.057Z,3.07
2017-06-28T19:23:13.392Z,2.90
2017-06-28T19:25:42.884Z,2.77
2017-06-28T19:28:10.826Z,2.77
2017-06-28T19:30:40.387Z,2.70
2017-06-28T19:33:09.565Z,3.07
2017-06-28T19:35:37.951Z,3.30
2017-06-28T19:38:06.205Z,2.80
2017-06-28T19:40:34.742Z,2.80
2017-06-28T19:43:03.513Z,2.63
2017-06-28T19:45:31.711Z,2.53
2017-06-28T19:48:00.783Z,3.87
2017-06-28T19:50:30.214Z,2.80
2017-06-28T19:52:59.007Z,2.90
2017-06-28T19:55:28.093Z,2.70
2017-06-28T19:57:56.548Z,3.60
2017-06-28T20:00:24.796Z,4.23
2017-06-28T20:02:53.499Z,3.23
2017-06-28T20:05:21.511Z,3.62
2017-06-28T20:07:50.526Z,3.50
2017-06-28T20:10:18.965Z,3.43
2017-06-28T20:12:46.928Z,3.17
2017-06-28T20:15:14.933Z,6.20
2017-06-28T20:17:43.369Z,3.50
2017-06-28T20:20:11.912Z,3.53
2017-06-28T20:22:40.093Z,3.30
2017-06-28T20:25:08.286Z,3.83
2017-06-28T20:27:36.669Z,3.87
2017-06-28T20:30:04.654Z,3.23
2017-06-28T20:32:33.092Z,3.77
2017-06-28T20:35:01.577Z,3.40
2017-06-28T20:37:30.075Z,3.20
2017-06-28T20:39:58.044Z,3.30
2017-06-28T20:42:26.226Z,3.70
2017-06-28T20:44:54.167Z,3.60
2017-06-28T20:47:23.219Z,4.83
2017-06-28T20:49:51.170Z,3.80
2017-06-28T20:52:19.182Z,4.30
2017-06-28T20:54:47.663Z,3.47
2017-06-28T20:57:15.703Z,3.20
2017-06-28T20:59:43.994Z,4.20
2017-06-28T21:02:12.206Z,3.47
2017-06-28T21:04:40.294Z,4.10
2017-06-28T21:07:08.528Z,3.67
2017-06-28T21:09:37.147Z,3.83
2017-06-28T21:12:06.433Z,3.20
2017-06-28T21:14:35.287Z,3.57
2017-06-28T21:17:03.591Z,5.73
2017-06-28T21:19:31.754Z,4.13
2017-06-28T21:22:00.083Z,6.00
2017-06-28T21:24:28.356Z,3.80
2017-06-28T21:26:56.730Z,3.63
2017-06-28T21:29:25.544Z,4.70
2017-06-28T21:31:54.177Z,3.70
2017-06-28T21:34:22.450Z,6.00
2017-06-28T21:36:50.857Z,6.90
2017-06-28T21:39:19.218Z,3.80
2017-06-28T21:41:47.857Z,2.80
2017-06-28T21:44:16.227Z,4.87
2017-06-28T21:46:44.676Z,3.87
2017-06-28T21:49:12.911Z,3.77
2017-06-28T21:51:41.728Z,3.00
2017-06-28T21:54:10.038Z,3.63
2017-06-28T21:56:39.049Z,2.70
2017-06-28T21:59:07.646Z,4.00
2017-06-28T22:01:35.562Z,3.10
2017-06-28T22:04:04.189Z,4.10
2017-06-28T22:06:32.625Z,3.03
2017-06-28T22:09:01.670Z,3.87
2017-06-28T22:11:30.041Z,2.90
2017-06-28T22:16:33.031Z,5.10
2017-06-28T22:19:13.712Z,2.80
2017-06-28T22:21:41.819Z,3.00
2017-06-28T22:24:10.450Z,3.50
2017-06-28T22:26:39.133Z,3.00
2017-06-28T22:29:07.557Z,3.00
2017-06-28T22:31:35.749Z,2.97
2017-06-28T22:34:04.086Z,2.43
2017-06-28T22:36:32.719Z,3.00
2017-06-28T22:39:01.154Z,2.87
2017-06-28T22:41:29.761Z,3.10
2017-06-28T22:43:58.603Z,2.17
2017-06-28T22:46:27.840Z,2.70
2017-06-28T22:48:56.745Z,4.60
2017-06-28T22:51:24.932Z,3.33
2017-06-28T22:53:54.091Z,2.83
2017-06-28T22:56:23.052Z,2.40
2017-06-28T22:58:51.445Z,3.40
2017-06-28T23:01:19.829Z,3.13
2017-06-28T23:03:47.679Z,3.00
2017-06-28T23:06:16.364Z,2.87
2017-06-28T23:08:45.226Z,4.23
2017-06-28T23:11:13.345Z,3.30
2017-06-28T23:13:41.290Z,3.20
2017-06-28T23:16:10.817Z,3.27
2017-06-28T23:18:39.838Z,2.47
2017-06-28T23:21:08.200Z,2.47
2017-06-28T23:23:36.342Z,3.93
2017-06-28T23:26:05.035Z,2.80
2017-06-28T23:28:34.055Z,3.90
2017-06-28T23:31:02.350Z,3.20
2017-06-28T23:33:30.328Z,3.23
2017-06-28T23:35:58.457Z,3.00
2017-06-28T23:38:28.237Z,3.73
2017-06-28T23:40:57.496Z,5.93
2017-06-28T23:43:26.275Z,2.80
2017-06-28T23:45:55.232Z,3.30
2017-06-28T23:48:24.071Z,4.20
2017-06-28T23:50:52.888Z,3.60
2017-06-28T23:53:21.018Z,3.43
2017-06-28T23:55:49.658Z,3.50
2017-06-28T23:58:17.954Z,4.07
